createdAt,value
2018-05-17T00:00:12.932Z,2.67
2018-05-17T00:02:39.655Z,2.57
2018-05-17T00:05:06.353Z,2.60
2018-05-17T00:07:33.051Z,2.90
2018-05-17T00:09:59.750Z,2.53
2018-05-17T00:12:26.472Z,2.60
2018-05-17T00:14:53.172Z,2.60
2018-05-17T00:17:19.867Z,2.37
2018-05-17T00:19:46.567Z,2.37
2018-05-17T00:22:13.262Z,2.10
2018-05-17T00:24:39.982Z,2.20
2018-05-17T00:27:06.694Z,2.00
2018-05-17T00:29:33.388Z,2.00
2018-05-17T00:32:00.106Z,2.40
2018-05-17T00:34:26.855Z,2.00
2018-05-17T00:36:53.575Z,2.27
2018-05-17T00:39:20.272Z,1.73
2018-05-17T00:41:46.976Z,1.77
2018-05-17T00:44:13.671Z,2.07
2018-05-17T00:46:40.371Z,1.90
2018-05-17T00:49:07.095Z,1.93
2018-05-17T00:51:33.800Z,1.73
2018-05-17T00:54:00.494Z,2.03
2018-05-17T00:56:27.198Z,2.27
2018-05-17T00:58:53.895Z,1.87
2018-05-17T01:01:20.624Z,2.00
2018-05-17T01:03:47.524Z,1.80
2018-05-17T01:06:14.219Z,1.90
2018-05-17T01:08:40.912Z,2.03
2018-05-17T01:11:07.615Z,1.70
2018-05-17T01:13:34.331Z,1.80
2018-05-17T01:16:01.103Z,1.80
2018-05-17T01:18:27.748Z,1.70
2018-05-17T01:20:54.502Z,1.83
2018-05-17T01:23:21.199Z,1.80
2018-05-17T01:25:47.915Z,2.00
2018-05-17T01:28:14.624Z,1.70
2018-05-17T01:30:41.319Z,1.50
2018-05-17T01:33:08.012Z,1.70
2018-05-17T01:35:34.714Z,1.60
2018-05-17T01:38:07.217Z,1.90
2018-05-17T01:40:33.915Z,1.67
2018-05-17T01:43:00.607Z,1.50
2018-05-17T01:45:27.304Z,1.50
2018-05-17T01:47:54.676Z,1.60
2018-05-17T01:50:21.683Z,1.63
2018-05-17T01:52:48.375Z,2.00
2018-05-17T01:55:15.086Z,1.40
2018-05-17T01:57:41.811Z,1.93
2018-05-17T02:00:08.503Z,1.70
2018-05-17T02:02:35.201Z,1.70
2018-05-17T02:05:02.072Z,1.40
2018-05-17T02:07:28.772Z,1.53
2018-05-17T02:09:55.493Z,1.70
2018-05-17T02:12:22.199Z,1.60
2018-05-17T02:14:48.913Z,1.63
2018-05-17T02:17:15.615Z,1.67
2018-05-17T02:19:42.411Z,1.43
2018-05-17T02:22:09.136Z,1.30
2018-05-17T02:24:35.839Z,1.50
2018-05-17T02:27:02.559Z,1.60
2018-05-17T02:29:29.252Z,1.60
2018-05-17T02:31:55.948Z,1.60
2018-05-17T02:34:22.679Z,1.90
2018-05-17T02:36:49.372Z,1.90
2018-05-17T02:39:16.073Z,1.80
2018-05-17T02:41:42.789Z,1.70
2018-05-17T02:44:09.491Z,1.43
2018-05-17T02:46:36.217Z,1.47
2018-05-17T02:49:02.995Z,1.37
2018-05-17T02:51:29.639Z,1.37
2018-05-17T02:53:56.336Z,1.37
2018-05-17T02:56:23.035Z,1.27
2018-05-17T02:58:49.751Z,1.37
2018-05-17T03:01:16.459Z,1.57
2018-05-17T03:03:43.160Z,1.53
2018-05-17T03:06:09.860Z,1.80
2018-05-17T03:08:36.560Z,1.50
2018-05-17T03:11:03.283Z,1.53
2018-05-17T03:13:29.984Z,1.40
2018-05-17T03:15:56.702Z,1.43
2018-05-17T03:18:23.403Z,1.60
2018-05-17T03:20:50.111Z,1.53
2018-05-17T03:23:16.835Z,1.97
2018-05-17T03:25:43.531Z,1.70
2018-05-17T03:28:10.223Z,1.60
2018-05-17T03:30:36.927Z,1.57
2018-05-17T03:33:03.631Z,1.70
2018-05-17T03:35:30.351Z,1.73
2018-05-17T03:37:57.053Z,1.70
2018-05-17T03:40:23.747Z,1.67
2018-05-17T03:42:50.442Z,1.57
2018-05-17T03:45:17.137Z,1.37
2018-05-17T03:47:43.867Z,1.83
2018-05-17T03:50:10.571Z,1.70
2018-05-17T03:52:37.276Z,1.60
2018-05-17T03:55:03.971Z,1.73
2018-05-17T03:57:30.668Z,1.73
2018-05-17T03:59:57.395Z,1.80
2018-05-17T04:02:29.993Z,2.20
2018-05-17T04:05:02.474Z,2.07
2018-05-17T04:07:29.120Z,1.60
2018-05-17T04:09:55.823Z,1.90
2018-05-17T04:12:22.534Z,2.00
2018-05-17T04:14:49.240Z,1.77
2018-05-17T04:17:15.971Z,2.37
2018-05-17T04:19:42.705Z,2.07
2018-05-17T04:22:09.403Z,2.20
2018-05-17T04:24:36.099Z,1.93
2018-05-17T04:27:02.827Z,1.77
2018-05-17T04:29:29.564Z,1.90
2018-05-17T04:31:56.267Z,2.03
2018-05-17T04:34:23.147Z,1.77
2018-05-17T04:36:49.863Z,1.80
2018-05-17T04:39:16.567Z,1.80
2018-05-17T04:41:43.281Z,1.93
2018-05-17T04:44:10.000Z,2.00
2018-05-17T04:46:36.699Z,2.20
2018-05-17T04:49:03.432Z,2.03
2018-05-17T04:51:30.127Z,2.10
2018-05-17T04:53:56.962Z,2.03
2018-05-17T04:56:23.659Z,1.90
2018-05-17T04:58:50.359Z,2.27
2018-05-17T05:01:17.113Z,2.07
2018-05-17T05:03:43.795Z,2.23
2018-05-17T05:06:10.516Z,2.17
2018-05-17T05:08:37.215Z,2.00
2018-05-17T05:11:03.919Z,1.83
2018-05-17T05:13:30.623Z,2.13
2018-05-17T05:15:57.326Z,2.40
2018-05-17T05:18:24.055Z,2.57
2018-05-17T05:20:50.755Z,2.13
2018-05-17T05:23:17.451Z,1.73
2018-05-17T05:25:44.160Z,2.23
2018-05-17T05:28:10.863Z,2.40
2018-05-17T05:30:37.564Z,1.70
2018-05-17T05:33:04.271Z,1.90
2018-05-17T05:35:30.976Z,1.83
2018-05-17T05:37:57.679Z,1.70
2018-05-17T05:40:24.387Z,1.73
2018-05-17T05:42:51.098Z,1.93
2018-05-17T05:45:17.801Z,2.00
2018-05-17T05:47:44.538Z,1.73
2018-05-17T05:50:11.248Z,1.70
2018-05-17T05:52:37.943Z,1.80
2018-05-17T05:55:04.664Z,2.23
2018-05-17T05:57:31.363Z,1.90
2018-05-17T05:59:58.063Z,2.07
2018-05-17T06:02:25.547Z,2.10
2018-05-17T06:04:52.179Z,2.00
2018-05-17T06:07:18.883Z,2.00
2018-05-17T06:09:45.587Z,1.60
2018-05-17T06:12:12.291Z,1.80
2018-05-17T06:14:39.011Z,1.77
2018-05-17T06:17:05.710Z,1.93
2018-05-17T06:19:32.412Z,2.10
2018-05-17T06:21:59.120Z,2.20
2018-05-17T06:24:26.584Z,1.77
2018-05-17T06:26:53.307Z,2.10
2018-05-17T06:29:20.007Z,1.93
2018-05-17T06:31:46.731Z,2.27
2018-05-17T06:34:13.428Z,1.87
2018-05-17T06:36:40.132Z,1.90
2018-05-17T06:39:06.862Z,1.87
2018-05-17T06:41:33.563Z,1.73
2018-05-17T06:44:00.350Z,2.33
2018-05-17T06:46:26.995Z,1.90
2018-05-17T06:48:53.699Z,2.00
2018-05-17T06:51:20.431Z,1.97
2018-05-17T06:53:47.135Z,2.50
2018-05-17T06:56:13.841Z,1.93
2018-05-17T06:58:40.542Z,1.93
2018-05-17T07:01:07.325Z,1.97
2018-05-17T07:03:33.986Z,1.73
2018-05-17T07:06:00.687Z,1.67
2018-05-17T07:08:27.388Z,1.67
2018-05-17T07:10:54.095Z,2.10
2018-05-17T07:13:20.796Z,1.80
2018-05-17T07:15:47.525Z,1.77
2018-05-17T07:18:14.404Z,1.90
2018-05-17T07:20:40.988Z,2.03
2018-05-17T07:23:07.696Z,1.50
2018-05-17T07:25:34.391Z,1.73
2018-05-17T07:28:01.105Z,1.70
2018-05-17T07:30:27.844Z,1.90
2018-05-17T07:32:54.757Z,1.80
2018-05-17T07:35:21.459Z,2.10
2018-05-17T07:37:48.167Z,1.57
2018-05-17T07:40:14.879Z,1.73
2018-05-17T07:42:41.603Z,1.93
2018-05-17T07:45:08.315Z,1.80
2018-05-17T07:47:35.018Z,1.87
2018-05-17T07:50:01.724Z,2.00
2018-05-17T07:52:28.430Z,1.60
2018-05-17T07:54:55.159Z,1.87
2018-05-17T07:57:21.863Z,1.80
2018-05-17T07:59:48.567Z,1.80
2018-05-17T08:02:15.315Z,1.90
2018-05-17T08:04:42.021Z,1.87
2018-05-17T08:07:08.748Z,2.10
2018-05-17T08:09:35.443Z,1.97
2018-05-17T08:12:02.144Z,1.50
2018-05-17T08:14:28.855Z,1.80
2018-05-17T08:16:55.556Z,1.93
2018-05-17T08:19:22.287Z,1.70
2018-05-17T08:21:49.004Z,1.70
2018-05-17T08:24:15.716Z,1.90
2018-05-17T08:26:42.413Z,1.80
2018-05-17T08:29:09.120Z,1.63
2018-05-17T08:31:35.854Z,1.63
2018-05-17T08:34:02.556Z,1.67
2018-05-17T08:36:29.321Z,1.70
2018-05-17T08:38:56.003Z,1.43
2018-05-17T08:41:22.700Z,1.77
2018-05-17T08:43:49.451Z,1.53
2018-05-17T08:46:17.068Z,1.67
2018-05-17T08:48:43.779Z,1.97
2018-05-17T08:51:10.479Z,1.53
2018-05-17T08:53:37.175Z,1.70
2018-05-17T08:56:03.908Z,1.60
2018-05-17T08:58:30.607Z,1.60
2018-05-17T09:00:57.311Z,1.77
2018-05-17T09:03:24.017Z,1.70
2018-05-17T09:05:50.717Z,1.83
2018-05-17T09:08:17.475Z,1.83
2018-05-17T09:10:44.174Z,1.70
2018-05-17T09:13:10.880Z,2.13
2018-05-17T09:15:37.587Z,1.43
2018-05-17T09:18:04.312Z,1.50
2018-05-17T09:20:31.064Z,1.83
2018-05-17T09:22:57.775Z,1.97
2018-05-17T09:25:24.476Z,1.57
2018-05-17T09:27:51.171Z,1.50
2018-05-17T09:30:17.868Z,1.60
2018-05-17T09:32:44.599Z,1.70
2018-05-17T09:35:11.301Z,1.70
2018-05-17T09:37:38.008Z,1.47
2018-05-17T09:40:04.711Z,1.57
2018-05-17T09:42:31.422Z,1.43
2018-05-17T09:44:58.151Z,1.60
2018-05-17T09:47:24.855Z,1.67
2018-05-17T09:49:51.555Z,1.80
2018-05-17T09:52:18.252Z,1.70
2018-05-17T09:54:44.951Z,1.63
2018-05-17T09:57:11.719Z,1.77
2018-05-17T09:59:38.425Z,1.63
2018-05-17T10:02:05.124Z,1.47
2018-05-17T10:04:31.819Z,1.43
2018-05-17T10:06:58.574Z,1.70
2018-05-17T10:09:25.297Z,1.50
2018-05-17T10:11:52.051Z,1.37
2018-05-17T10:14:18.744Z,1.40
2018-05-17T10:16:45.451Z,1.70
2018-05-17T10:19:12.148Z,1.50
2018-05-17T10:21:38.877Z,1.80
2018-05-17T10:24:05.577Z,1.33
2018-05-17T10:26:32.391Z,1.63
2018-05-17T10:28:59.087Z,1.40
2018-05-17T10:31:25.784Z,1.47
2018-05-17T10:33:52.508Z,1.60
2018-05-17T10:36:19.221Z,1.23
2018-05-17T10:38:45.915Z,1.40
2018-05-17T10:41:12.617Z,1.50
2018-05-17T10:43:39.315Z,1.50
2018-05-17T10:46:06.037Z,1.40
2018-05-17T10:48:32.735Z,1.53
2018-05-17T10:50:59.431Z,1.50
2018-05-17T10:53:26.132Z,1.60
2018-05-17T10:55:52.832Z,1.87
2018-05-17T10:58:19.555Z,1.70
2018-05-17T11:00:46.255Z,1.60
2018-05-17T11:03:12.959Z,1.63
2018-05-17T11:05:39.666Z,1.27
2018-05-17T11:08:06.367Z,1.30
2018-05-17T11:10:33.083Z,1.43
2018-05-17T11:12:59.783Z,1.50
2018-05-17T11:15:26.481Z,1.50
2018-05-17T11:17:53.187Z,1.37
2018-05-17T11:20:19.885Z,1.70
2018-05-17T11:22:46.615Z,1.50
2018-05-17T11:25:13.312Z,1.47
2018-05-17T11:27:40.015Z,1.40
2018-05-17T11:30:06.717Z,1.40
2018-05-17T11:32:33.421Z,1.67
2018-05-17T11:35:00.143Z,1.70
2018-05-17T11:37:26.845Z,1.40
2018-05-17T11:39:53.547Z,1.30
2018-05-17T11:42:20.263Z,1.40
2018-05-17T11:44:47.055Z,1.60
2018-05-17T11:47:13.773Z,1.40
2018-05-17T11:49:40.483Z,1.40
2018-05-17T11:52:07.192Z,1.53
2018-05-17T11:54:33.918Z,1.30
2018-05-17T11:57:00.636Z,1.30
2018-05-17T11:59:27.335Z,1.67
2018-05-17T12:01:54.035Z,1.70
2018-05-17T12:04:20.742Z,1.77
2018-05-17T12:06:47.448Z,1.47
2018-05-17T12:09:14.144Z,1.50
2018-05-17T12:11:41.095Z,1.50
2018-05-17T12:14:07.798Z,1.50
2018-05-17T12:16:34.531Z,1.80
2018-05-17T12:19:01.235Z,1.77
2018-05-17T12:21:27.932Z,1.40
2018-05-17T12:23:54.663Z,1.60
2018-05-17T12:26:21.366Z,1.50
2018-05-17T12:28:48.066Z,1.33
2018-05-17T12:31:14.787Z,1.73
2018-05-17T12:33:41.511Z,1.20
2018-05-17T12:36:08.211Z,1.77
2018-05-17T12:38:34.907Z,1.80
2018-05-17T12:41:01.609Z,1.70
2018-05-17T12:43:28.349Z,1.50
2018-05-17T12:45:55.055Z,1.53
2018-05-17T12:48:21.763Z,1.50
2018-05-17T12:50:48.541Z,1.37
2018-05-17T12:53:15.320Z,1.33
2018-05-17T12:55:42.821Z,1.53
2018-05-17T12:58:09.515Z,1.70
2018-05-17T13:00:36.227Z,1.60
2018-05-17T13:03:02.947Z,1.43
2018-05-17T13:05:29.648Z,1.50
2018-05-17T13:07:56.352Z,1.60
2018-05-17T13:10:23.054Z,1.70
2018-05-17T13:12:49.771Z,1.73
2018-05-17T13:15:16.500Z,1.50
2018-05-17T13:17:43.382Z,1.30
2018-05-17T13:20:10.084Z,1.50
2018-05-17T13:22:36.788Z,1.37
2018-05-17T13:25:03.819Z,1.40
2018-05-17T13:27:30.754Z,1.23
2018-05-17T13:29:57.460Z,1.50
2018-05-17T13:32:24.160Z,1.63
2018-05-17T13:34:50.870Z,1.40
2018-05-17T13:37:17.648Z,1.60
2018-05-17T13:39:44.327Z,1.20
2018-05-17T13:42:11.183Z,1.30
2018-05-17T13:44:37.886Z,1.80
2018-05-17T13:47:04.615Z,1.43
2018-05-17T13:49:31.324Z,1.63
2018-05-17T13:51:58.407Z,1.60
2018-05-17T13:54:25.113Z,1.60
2018-05-17T13:56:51.856Z,1.57
2018-05-17T13:59:18.788Z,1.57
2018-05-17T14:01:45.487Z,1.50
2018-05-17T14:04:12.209Z,1.77
2018-05-17T14:06:38.920Z,1.40
2018-05-17T14:09:05.623Z,1.80
2018-05-17T14:11:32.345Z,1.43
2018-05-17T14:13:59.187Z,1.63
2018-05-17T14:16:25.931Z,1.90
2018-05-17T14:18:52.819Z,1.90
2018-05-17T14:21:19.519Z,1.60
2018-05-17T14:23:46.219Z,1.40
2018-05-17T14:26:12.921Z,1.70
2018-05-17T14:28:39.650Z,1.40
2018-05-17T14:31:06.370Z,1.37
2018-05-17T14:33:33.257Z,1.30
2018-05-17T14:35:59.959Z,1.50
2018-05-17T14:38:26.659Z,1.60
2018-05-17T14:40:53.400Z,1.60
2018-05-17T14:43:20.099Z,1.33
2018-05-17T14:45:46.795Z,1.37
2018-05-17T14:48:13.745Z,1.50
2018-05-17T14:50:40.443Z,1.60
2018-05-17T14:53:07.176Z,1.53
2018-05-17T14:55:33.887Z,1.70
2018-05-17T14:58:00.587Z,1.40
2018-05-17T15:00:27.303Z,1.47
2018-05-17T15:02:54.003Z,1.53
2018-05-17T15:05:20.739Z,1.40
2018-05-17T15:07:47.492Z,1.37
2018-05-17T15:10:14.168Z,1.57
2018-05-17T15:12:40.867Z,1.40
2018-05-17T15:15:07.567Z,1.40
2018-05-17T15:17:34.322Z,1.30
2018-05-17T15:20:01.044Z,1.40
2018-05-17T15:22:27.743Z,1.50
2018-05-17T15:24:54.445Z,1.60
2018-05-17T15:27:21.233Z,1.53
2018-05-17T15:29:47.973Z,1.17
2018-05-17T15:32:14.640Z,1.13
2018-05-17T15:34:41.578Z,1.23
2018-05-17T15:37:08.275Z,1.37
2018-05-17T15:39:34.984Z,1.10
2018-05-17T15:42:01.707Z,1.10
2018-05-17T15:44:28.413Z,1.30
2018-05-17T15:46:55.125Z,1.50
2018-05-17T15:49:21.855Z,1.50
2018-05-17T15:51:48.552Z,1.40
2018-05-17T15:54:15.276Z,1.33
2018-05-17T15:56:42.009Z,1.37
2018-05-17T15:59:08.847Z,1.30
2018-05-17T16:01:35.548Z,1.30
2018-05-17T16:04:02.250Z,1.10
2018-05-17T16:06:28.971Z,1.20
2018-05-17T16:08:55.682Z,1.50
2018-05-17T16:11:22.383Z,1.13
2018-05-17T16:13:49.107Z,1.13
2018-05-17T16:16:15.812Z,1.40
2018-05-17T16:18:42.552Z,1.10
2018-05-17T16:21:09.248Z,1.03
2018-05-17T16:23:35.951Z,1.20
2018-05-17T16:26:02.655Z,1.40
2018-05-17T16:28:29.355Z,1.83
2018-05-17T16:30:56.091Z,1.00
2018-05-17T16:33:22.804Z,1.50
2018-05-17T16:35:49.511Z,1.60
2018-05-17T16:38:16.211Z,1.10
2018-05-17T16:40:42.909Z,1.40
2018-05-17T16:43:10.376Z,1.17
2018-05-17T16:45:38.490Z,1.67
2018-05-17T16:48:05.491Z,1.37
2018-05-17T16:50:33.611Z,1.37
2018-05-17T16:53:00.432Z,1.10
2018-05-17T16:55:28.561Z,1.40
2018-05-17T16:57:55.355Z,1.13
2018-05-17T17:00:22.268Z,1.30
2018-05-17T17:02:49.128Z,1.57
2018-05-17T17:05:15.823Z,1.57
2018-05-17T17:07:42.547Z,1.20
2018-05-17T17:10:09.243Z,1.23
2018-05-17T17:12:35.947Z,1.20
2018-05-17T17:15:02.647Z,1.30
2018-05-17T17:17:29.350Z,1.50
2018-05-17T17:19:56.076Z,1.20
2018-05-17T17:22:22.767Z,1.37
2018-05-17T17:24:49.463Z,1.30
2018-05-17T17:27:16.162Z,1.33
2018-05-17T17:29:42.855Z,1.43
2018-05-17T17:32:09.591Z,1.60
2018-05-17T17:34:36.287Z,1.47
2018-05-17T17:37:03.166Z,1.40
2018-05-17T17:39:29.863Z,1.30
2018-05-17T17:41:56.557Z,1.20
2018-05-17T17:44:23.280Z,1.30
2018-05-17T17:46:49.988Z,1.33
2018-05-17T17:49:16.689Z,1.37
2018-05-17T17:51:43.382Z,1.10
2018-05-17T17:54:10.080Z,1.30
2018-05-17T17:56:36.816Z,1.17
2018-05-17T17:59:03.809Z,1.27
2018-05-17T18:01:30.508Z,1.20
2018-05-17T18:03:57.227Z,1.10
2018-05-17T18:06:23.957Z,1.23
2018-05-17T18:08:50.684Z,1.23
2018-05-17T18:11:17.427Z,1.50
2018-05-17T18:13:44.132Z,1.30
2018-05-17T18:16:10.832Z,1.30
2018-05-17T18:18:37.547Z,1.43
2018-05-17T18:21:04.284Z,1.20
2018-05-17T18:23:30.984Z,1.17
2018-05-17T18:25:57.696Z,1.20
2018-05-17T18:28:24.402Z,1.50
2018-05-17T18:30:51.106Z,1.10
2018-05-17T18:33:17.814Z,1.57
2018-05-17T18:35:44.555Z,1.03
2018-05-17T18:38:11.256Z,1.27
2018-05-17T18:40:37.955Z,1.20
2018-05-17T18:43:04.782Z,1.17
2018-05-17T18:45:33.735Z,1.30
2018-05-17T18:48:00.433Z,1.07
2018-05-17T18:50:27.184Z,1.20
2018-05-17T18:52:53.884Z,1.10
2018-05-17T18:55:22.917Z,1.07
2018-05-17T18:57:47.338Z,1.43
2018-05-17T19:00:14.109Z,1.50
2018-05-17T19:02:40.822Z,1.37
2018-05-17T19:05:07.509Z,1.40
2018-05-17T19:07:34.255Z,1.30
2018-05-17T19:10:01.025Z,1.00
2018-05-17T19:12:27.727Z,1.03
2018-05-17T19:14:54.459Z,1.20
2018-05-17T19:17:21.159Z,1.17
2018-05-17T19:19:47.872Z,1.20
2018-05-17T19:22:14.618Z,1.20
2018-05-17T19:24:41.310Z,1.10
2018-05-17T19:27:08.016Z,1.10
2018-05-17T19:29:34.715Z,1.20
2018-05-17T19:32:01.420Z,1.10
2018-05-17T19:34:28.147Z,1.20
2018-05-17T19:36:54.870Z,1.30
2018-05-17T19:39:21.571Z,1.00
2018-05-17T19:41:48.363Z,1.50
2018-05-17T19:44:15.008Z,1.00
2018-05-17T19:46:41.744Z,1.00
2018-05-17T19:49:08.451Z,1.10
2018-05-17T19:51:35.186Z,1.13
2018-05-17T19:54:01.897Z,1.03
2018-05-17T19:56:28.608Z,1.10
2018-05-17T19:58:55.373Z,0.97
2018-05-17T20:01:22.084Z,1.20
2018-05-17T20:03:48.795Z,1.00
2018-05-17T20:06:15.513Z,1.20
2018-05-17T20:08:42.222Z,1.10
2018-05-17T20:11:08.956Z,0.90
2018-05-17T20:13:35.659Z,0.97
2018-05-17T20:16:02.360Z,1.10
2018-05-17T20:18:29.242Z,1.20
2018-05-17T20:20:55.983Z,1.30
2018-05-17T20:23:22.711Z,1.10
2018-05-17T20:25:49.414Z,1.50
2018-05-17T20:28:16.214Z,1.10
2018-05-17T20:30:42.869Z,0.90
2018-05-17T20:33:09.571Z,1.10
2018-05-17T20:35:36.303Z,1.10
2018-05-17T20:38:03.011Z,1.00
2018-05-17T20:40:29.711Z,1.10
2018-05-17T20:42:56.403Z,1.33
2018-05-17T20:45:23.394Z,1.10
2018-05-17T20:47:50.123Z,1.10
2018-05-17T20:50:16.823Z,1.10
2018-05-17T20:52:43.535Z,1.20
2018-05-17T20:55:10.312Z,1.40
2018-05-17T20:57:36.967Z,1.20
2018-05-17T21:00:03.699Z,1.00
2018-05-17T21:02:30.396Z,1.23
2018-05-17T21:04:57.092Z,1.17
2018-05-17T21:07:23.863Z,1.00
2018-05-17T21:09:50.567Z,1.10
2018-05-17T21:12:17.279Z,1.03
2018-05-17T21:14:43.983Z,1.10
2018-05-17T21:17:10.680Z,1.10
2018-05-17T21:19:37.387Z,1.10
2018-05-17T21:22:04.096Z,0.97
2018-05-17T21:24:30.819Z,1.17
2018-05-17T21:26:57.524Z,1.07
2018-05-17T21:29:24.219Z,1.37
2018-05-17T21:31:50.915Z,1.20
2018-05-17T21:34:17.624Z,1.17
2018-05-17T21:36:44.359Z,1.20
2018-05-17T21:39:11.059Z,1.30
2018-05-17T21:41:37.751Z,1.00
2018-05-17T21:44:04.452Z,1.23
2018-05-17T21:46:31.149Z,1.10
2018-05-17T21:48:57.871Z,1.10
2018-05-17T21:51:24.575Z,1.00
2018-05-17T21:53:51.273Z,1.00
2018-05-17T21:56:17.972Z,1.30
2018-05-17T21:58:44.673Z,1.30
2018-05-17T22:01:11.396Z,1.10
2018-05-17T22:03:38.096Z,1.10
2018-05-17T22:06:04.792Z,1.30
2018-05-17T22:08:31.491Z,1.00
2018-05-17T22:10:58.187Z,1.20
2018-05-17T22:13:24.931Z,1.00
2018-05-17T22:15:51.640Z,1.33
2018-05-17T22:18:18.348Z,1.20
2018-05-17T22:20:45.055Z,1.20
2018-05-17T22:23:11.768Z,1.30
2018-05-17T22:25:38.500Z,1.30
2018-05-17T22:28:05.192Z,1.00
2018-05-17T22:30:31.899Z,1.10
2018-05-17T22:32:58.604Z,1.10
2018-05-17T22:35:25.311Z,1.27
2018-05-17T22:37:52.016Z,1.20
2018-05-17T22:40:18.723Z,1.40
2018-05-17T22:42:45.451Z,1.30
2018-05-17T22:45:12.144Z,1.20
2018-05-17T22:47:38.852Z,1.20
2018-05-17T22:50:05.567Z,1.00
2018-05-17T22:52:32.267Z,1.70
2018-05-17T22:54:59.000Z,1.20
2018-05-17T22:57:31.549Z,1.10
2018-05-17T22:59:58.271Z,1.13
2018-05-17T23:02:25.650Z,1.20
2018-05-17T23:04:52.348Z,1.23
2018-05-17T23:07:19.060Z,1.40
2018-05-17T23:09:45.755Z,1.30
2018-05-17T23:12:12.707Z,1.43
2018-05-17T23:14:39.412Z,1.27
2018-05-17T23:17:06.119Z,1.40
2018-05-17T23:19:32.844Z,1.30
2018-05-17T23:21:59.544Z,1.50
2018-05-17T23:24:26.324Z,1.30
2018-05-17T23:26:53.023Z,1.10
2018-05-17T23:29:19.730Z,1.20
2018-05-17T23:31:46.452Z,1.13
2018-05-17T23:34:13.168Z,1.50
2018-05-17T23:36:39.868Z,1.30
2018-05-17T23:39:06.567Z,1.20
2018-05-17T23:41:34.100Z,1.53
2018-05-17T23:44:00.814Z,1.30
2018-05-17T23:46:27.511Z,1.40
2018-05-17T23:48:54.572Z,1.20
2018-05-17T23:51:21.271Z,1.50
2018-05-17T23:53:47.973Z,1.17
2018-05-17T23:56:14.675Z,1.10
2018-05-17T23:58:41.382Z,1.40
